Time;durP1;ratioP1;P1;durP2;ratioP2;P2;SDS_P1;SDS_P2;PMS_P1;PMS_P2;Temp;Humidity;BMP_temperature;BMP_pressure;BME280_temperature;BME280_humidity;BME280_pressure;Samples;Min_cycle;Max_cycle;Signal;HPM_P1;HPM_P2
2022/05/07 00:01:15;;;;;;;11.48;2.70;;;;;;;;;;5085635;28;20435;-72
2022/05/07 00:03:46;;;;;;;3.30;1.10;;;;;;;;;;5086796;28;20043;-72
2022/05/07 00:06:16;;;;;;;4.87;1.17;;;;;;;;;;5090563;28;20526;-74
2022/05/07 00:08:46;;;;;;;10.20;1.10;;;;;;;;;;5090724;28;20058;-73
2022/05/07 00:11:20;;;;;;;3.58;1.10;;;;;;;;;;5090560;28;20409;-73
2022/05/07 00:13:51;;;;;;;2.92;0.73;;;;;;;;;;5090409;28;20745;-73
2022/05/07 00:19:11;;;;;;;5.35;1.00;;;;;;;;;;5090635;28;20044;-73
2022/05/07 00:21:41;;;;;;;3.80;1.20;;;;;;;;;;5090547;28;20040;-73
2022/05/07 00:24:11;;;;;;;4.82;1.10;;;;;;;;;;5090179;28;20048;-77
2022/05/07 00:26:41;;;;;;;10.02;1.38;;;;;;;;;;5090061;28;20059;-72
2022/05/07 00:29:12;;;;;;;2.95;1.10;;;;;;;;;;5088052;28;20055;-74
2022/05/07 00:31:42;;;;;;;7.03;1.55;;;;;;;;;;5089402;28;20060;-73
2022/05/07 00:34:12;;;;;;;4.55;1.23;;;;;;;;;;5087336;28;20052;-73
2022/05/07 00:36:42;;;;;;;6.88;2.05;;;;;;;;;;5087041;28;20060;-73
2022/05/07 00:39:12;;;;;;;14.63;2.67;;;;;;;;;;5084664;28;20048;-73
2022/05/07 00:41:42;;;;;;;6.65;3.25;;;;;;;;;;5090614;28;20494;-73
2022/05/07 00:44:14;;;;;;;7.25;3.10;;;;;;;;;;5089584;28;20530;-74
2022/05/07 00:46:46;;;;;;;4.57;2.10;;;;;;;;;;5089419;28;20040;-73
2022/05/07 00:49:18;;;;;;;5.28;1.92;;;;;;;;;;5089049;28;20114;-73
2022/05/07 00:51:48;;;;;;;3.35;1.67;;;;;;;;;;5089317;28;20044;-73
2022/05/07 00:54:20;;;;;;;5.87;1.93;;;;;;;;;;5088146;28;20052;-80
2022/05/07 00:56:50;;;;;;;7.55;1.95;;;;;;;;;;5089003;28;20788;-74
2022/05/07 00:59:20;;;;;;;8.18;2.25;;;;;;;;;;5090220;28;20051;-73
2022/05/07 01:01:50;;;;;;;4.53;1.80;;;;;;;;;;5089262;28;20040;-73
2022/05/07 01:04:20;;;;;;;6.15;1.90;;;;;;;;;;5087977;28;20510;-74
2022/05/07 01:06:50;;;;;;;11.00;1.88;;;;;;;;;;5087537;28;20055;-73
2022/05/07 01:09:21;;;;;;;4.13;1.70;;;;;;;;;;5090139;28;20511;-72
2022/05/07 01:11:51;;;;;;;4.57;1.80;;;;;;;;;;5087692;28;20526;-73
2022/05/07 01:14:21;;;;;;;5.40;1.60;;;;;;;;;;5087446;28;20070;-73
2022/05/07 01:16:52;;;;;;;9.25;1.67;;;;;;;;;;5086856;28;20063;-74
2022/05/07 01:19:22;;;;;;;4.35;1.30;;;;;;;;;;5087309;28;20048;-74
2022/05/07 01:21:52;;;;;;;6.35;1.27;;;;;;;;;;5087922;28;20507;-72
2022/05/07 01:24:23;;;;;;;6.60;1.33;;;;;;;;;;5087472;28;20759;-73
2022/05/07 01:26:53;;;;;;;9.63;1.38;;;;;;;;;;5088757;28;20052;-75
2022/05/07 01:29:25;;;;;;;3.08;1.08;;;;;;;;;;5087312;28;20052;-71
2022/05/07 01:31:55;;;;;;;9.23;1.40;;;;;;;;;;5088137;28;20048;-72
2022/05/07 01:34:25;;;;;;;5.13;1.20;;;;;;;;;;5089224;28;20375;-72
2022/05/07 01:36:56;;;;;;;6.25;1.50;;;;;;;;;;5087732;28;20063;-72
2022/05/07 01:39:26;;;;;;;7.22;1.67;;;;;;;;;;5088878;28;20044;-72
2022/05/07 01:41:56;;;;;;;5.25;1.75;;;;;;;;;;5087405;28;20056;-71
2022/05/07 01:44:26;;;;;;;6.32;1.42;;;;;;;;;;5087212;28;20063;-72
2022/05/07 01:49:45;;;;;;;6.57;1.13;;;;;;;;;;5088594;28;20513;-73
2022/05/07 01:52:15;;;;;;;3.20;1.20;;;;;;;;;;5087382;28;20052;-72
2022/05/07 01:54:47;;;;;;;5.68;1.40;;;;;;;;;;5086783;28;20570;-72
2022/05/07 01:57:17;;;;;;;9.35;1.30;;;;;;;;;;5086834;28;20075;-74
2022/05/07 01:59:47;;;;;;;4.53;1.00;;;;;;;;;;5087185;28;20055;-71
2022/05/07 02:02:18;;;;;;;3.45;1.02;;;;;;;;;;5087100;28;20048;-72
2022/05/07 02:04:48;;;;;;;4.65;1.20;;;;;;;;;;5087332;28;20044;-72
2022/05/07 02:07:22;;;;;;;4.38;1.40;;;;;;;;;;5087023;28;20075;-73
2022/05/07 02:09:53;;;;;;;7.10;1.10;;;;;;;;;;5086975;28;20063;-73
2022/05/07 02:12:23;;;;;;;4.60;1.10;;;;;;;;;;5088410;28;20411;-72
2022/05/07 02:14:54;;;;;;;6.50;1.20;;;;;;;;;;5086219;28;20048;-73
2022/05/07 02:17:24;;;;;;;;;;;;;;;;;;5087500;28;20052;-72
2022/05/07 02:19:55;;;;;;;4.07;0.85;;;;;;;;;;5086654;28;20417;-72
2022/05/07 02:22:26;;;;;;;5.22;1.35;;;;;;;;;;5086486;28;20609;-72
2022/05/07 02:24:57;;;;;;;6.20;1.77;;;;;;;;;;5086398;28;20051;-72
2022/05/07 02:27:27;;;;;;;5.97;1.40;;;;;;;;;;5085655;28;20052;-73
2022/05/07 02:30:00;;;;;;;1.90;1.10;;;;;;;;;;5086558;28;20051;-73
2022/05/07 02:32:31;;;;;;;6.38;1.42;;;;;;;;;;5086135;28;20062;-72
2022/05/07 02:35:02;;;;;;;2.15;1.00;;;;;;;;;;5086583;28;20067;-73
2022/05/07 02:37:38;;;;;;;5.65;1.55;;;;;;;;;;5086202;28;20395;-73
2022/05/07 02:40:09;;;;;;;4.50;1.10;;;;;;;;;;5085951;28;20527;-73
2022/05/07 02:42:40;;;;;;;8.60;1.23;;;;;;;;;;5086431;28;20538;-73
2022/05/07 02:45:14;;;;;;;6.97;1.10;;;;;;;;;;5086480;28;20055;-73
2022/05/07 02:47:47;;;;;;;6.43;1.00;;;;;;;;;;5086259;28;20052;-72
2022/05/07 02:50:20;;;;;;;5.88;1.75;;;;;;;;;;5085921;28;20063;-72
2022/05/07 02:52:50;;;;;;;4.13;0.82;;;;;;;;;;5085935;28;20051;-73
2022/05/07 02:55:20;;;;;;;4.28;0.93;;;;;;;;;;5085555;28;20052;-73
2022/05/07 02:57:53;;;;;;;2.95;1.17;;;;;;;;;;5086296;28;20040;-72
2022/05/07 03:00:24;;;;;;;8.38;1.30;;;;;;;;;;5087209;28;20044;-72
2022/05/07 03:02:55;;;;;;;4.38;0.95;;;;;;;;;;5085677;28;20048;-73
2022/05/07 03:05:29;;;;;;;5.13;1.00;;;;;;;;;;5085888;28;20055;-72
2022/05/07 03:08:00;;;;;;;4.57;1.02;;;;;;;;;;5087462;28;20975;-73
2022/05/07 03:10:34;;;;;;;5.20;1.13;;;;;;;;;;5085896;28;20052;-72
2022/05/07 03:13:05;;;;;;;1.85;0.90;;;;;;;;;;5086868;28;20107;-73
2022/05/07 03:15:36;;;;;;;8.05;1.17;;;;;;;;;;5084930;28;20527;-73
2022/05/07 03:18:12;;;;;;;2.00;0.95;;;;;;;;;;5085479;28;20056;-72
2022/05/07 03:20:43;;;;;;;4.32;1.30;;;;;;;;;;5085706;28;20062;-73
2022/05/07 03:23:19;;;;;;;9.15;1.23;;;;;;;;;;5085998;28;20044;-72
2022/05/07 03:25:55;;;;;;;4.57;1.25;;;;;;;;;;5085556;28;20051;-72
2022/05/07 03:28:25;;;;;;;12.95;1.25;;;;;;;;;;5087346;28;20533;-73
2022/05/07 03:30:56;;;;;;;10.75;1.52;;;;;;;;;;5085574;28;20542;-72
2022/05/07 03:33:26;;;;;;;4.82;1.00;;;;;;;;;;5085001;28;20060;-73
2022/05/07 03:35:56;;;;;;;6.07;1.23;;;;;;;;;;5084609;28;20052;-72
2022/05/07 03:38:26;;;;;;;10.25;1.42;;;;;;;;;;5067895;28;20513;-72
2022/05/07 03:41:08;;;;;;;5.32;1.30;;;;;;;;;;5085551;28;20063;-74
2022/05/07 03:43:40;;;;;;;3.35;1.05;;;;;;;;;;5085026;28;20051;-73
2022/05/07 03:46:10;;;;;;;11.48;1.13;;;;;;;;;;5086468;28;20040;-73
2022/05/07 03:48:50;;;;;;;9.98;1.00;;;;;;;;;;5084945;28;20070;-72
2022/05/07 03:51:20;;;;;;;5.15;1.05;;;;;;;;;;5085296;28;20072;-73
2022/05/07 03:53:59;;;;;;;3.97;1.00;;;;;;;;;;5084524;28;20052;-73
2022/05/07 03:56:29;;;;;;;6.78;1.10;;;;;;;;;;5084762;28;20059;-72
2022/05/07 03:59:02;;;;;;;6.60;0.90;;;;;;;;;;5084749;28;20055;-72
2022/05/07 04:01:46;;;;;;;3.75;0.98;;;;;;;;;;5084967;28;20446;-72
2022/05/07 04:04:25;;;;;;;3.47;0.80;;;;;;;;;;5084241;28;20063;-72
2022/05/07 04:06:58;;;;;;;10.50;1.15;;;;;;;;;;5084339;28;20052;-73
2022/05/07 04:09:29;;;;;;;4.35;1.15;;;;;;;;;;5084568;28;20052;-72
2022/05/07 04:12:01;;;;;;;3.42;0.95;;;;;;;;;;5085307;28;20411;-72
2022/05/07 04:14:31;;;;;;;3.92;1.13;;;;;;;;;;5084881;28;20111;-73
2022/05/07 04:17:02;;;;;;;3.28;1.15;;;;;;;;;;5085111;28;20048;-72
2022/05/07 04:19:33;;;;;;;4.32;1.20;;;;;;;;;;5086342;28;20044;-73
2022/05/07 04:22:04;;;;;;;4.38;1.40;;;;;;;;;;5084246;28;20047;-72
2022/05/07 04:24:43;;;;;;;5.95;1.40;;;;;;;;;;5084999;28;20062;-72
2022/05/07 04:27:15;;;;;;;11.50;1.30;;;;;;;;;;5084179;28;20060;-73
2022/05/07 04:29:53;;;;;;;21.48;1.60;;;;;;;;;;5084168;28;20503;-73
2022/05/07 04:32:24;;;;;;;2.70;1.10;;;;;;;;;;5084548;28;20052;-73
2022/05/07 04:34:57;;;;;;;8.52;1.48;;;;;;;;;;5084353;28;20063;-72
2022/05/07 04:37:29;;;;;;;4.30;1.60;;;;;;;;;;5084697;28;20055;-73
2022/05/07 04:40:01;;;;;;;9.05;1.80;;;;;;;;;;5084572;28;20511;-72
2022/05/07 04:42:34;;;;;;;9.68;1.80;;;;;;;;;;5085350;28;20044;-72
2022/05/07 04:45:07;;;;;;;5.20;1.48;;;;;;;;;;5084415;28;20044;-72
2022/05/07 04:47:46;;;;;;;5.50;1.42;;;;;;;;;;5085148;28;20055;-72
2022/05/07 04:50:25;;;;;;;8.10;1.42;;;;;;;;;;5086782;28;20056;-72
2022/05/07 04:53:08;;;;;;;9.50;1.77;;;;;;;;;;5073543;28;20052;-73
2022/05/07 04:55:40;;;;;;;4.82;1.42;;;;;;;;;;5087850;28;20134;-72
2022/05/07 04:58:11;;;;;;;6.28;1.45;;;;;;;;;;5088420;28;20056;-73
2022/05/07 05:00:42;;;;;;;2.15;1.05;;;;;;;;;;5088003;28;20065;-72
2022/05/07 05:03:22;;;;;;;5.03;1.25;;;;;;;;;;5088308;28;20056;-72
2022/05/07 05:06:09;;;;;;;8.50;1.20;;;;;;;;;;5087887;28;20063;-72
2022/05/07 05:09:04;;;;;;;4.82;1.30;;;;;;;;;;5088673;28;20418;-72
2022/05/07 05:11:42;;;;;;;4.40;1.20;;;;;;;;;;5087531;28;20075;-72
2022/05/07 05:17:03;;;;;;;4.47;1.77;;;;;;;;;;5088129;28;20070;-73
2022/05/07 05:19:33;;;;;;;5.70;1.23;;;;;;;;;;5088356;28;20503;-73
2022/05/07 05:22:07;;;;;;;5.30;1.55;;;;;;;;;;5087770;28;20309;-72
2022/05/07 05:24:37;;;;;;;10.93;1.60;;;;;;;;;;5087440;28;20403;-73
2022/05/07 05:27:08;;;;;;;17.77;1.98;;;;;;;;;;5087764;28;20071;-73
2022/05/07 05:29:44;;;;;;;3.15;1.30;;;;;;;;;;5086881;28;20052;-72
2022/05/07 05:32:20;;;;;;;6.53;1.13;;;;;;;;;;5087923;28;20047;-72
2022/05/07 05:34:55;;;;;;;6.40;1.10;;;;;;;;;;5088086;28;20505;-72
2022/05/07 05:37:34;;;;;;;8.48;1.30;;;;;;;;;;5087083;28;20420;-72
2022/05/07 05:40:05;;;;;;;4.15;1.48;;;;;;;;;;5089313;28;20032;-72
2022/05/07 05:42:40;;;;;;;4.45;1.50;;;;;;;;;;5087385;28;20056;-72
2022/05/07 05:45:11;;;;;;;8.93;1.65;;;;;;;;;;5087216;28;20052;-72
2022/05/07 05:47:44;;;;;;;4.40;1.40;;;;;;;;;;5086673;28;20612;-72
2022/05/07 05:50:16;;;;;;;5.78;1.15;;;;;;;;;;5087153;28;20521;-72
2022/05/07 05:52:48;;;;;;;8.30;1.30;;;;;;;;;;5086801;28;20364;-73
2022/05/07 05:55:19;;;;;;;6.83;1.40;;;;;;;;;;5087414;28;20056;-72
2022/05/07 05:57:51;;;;;;;2.13;0.98;;;;;;;;;;5086449;28;20293;-72
2022/05/07 06:00:24;;;;;;;8.25;1.70;;;;;;;;;;5086964;28;20070;-73
2022/05/07 06:02:54;;;;;;;5.80;1.65;;;;;;;;;;5086805;28;20055;-72
2022/05/07 06:05:28;;;;;;;4.03;1.00;;;;;;;;;;5088423;28;20515;-72
2022/05/07 06:07:59;;;;;;;10.37;1.20;;;;;;;;;;5086184;28;20134;-73
2022/05/07 06:10:37;;;;;;;7.20;1.42;;;;;;;;;;5086581;28;20052;-72
2022/05/07 06:13:10;;;;;;;8.93;1.50;;;;;;;;;;5086557;28;20063;-72
2022/05/07 06:15:51;;;;;;;4.72;1.23;;;;;;;;;;5086424;28;20067;-73
2022/05/07 06:18:25;;;;;;;4.30;1.27;;;;;;;;;;5086701;28;20052;-72
2022/05/07 06:21:02;;;;;;;7.28;1.63;;;;;;;;;;5086488;28;20065;-73
2022/05/07 06:23:38;;;;;;;5.85;1.30;;;;;;;;;;5086199;28;20059;-72
2022/05/07 06:29:08;;;;;;;4.22;1.30;;;;;;;;;;5085866;28;20059;-72
2022/05/07 06:31:41;;;;;;;9.20;1.73;;;;;;;;;;5086088;28;20146;-73
2022/05/07 06:34:13;;;;;;;14.80;1.65;;;;;;;;;;5086216;28;20070;-73
2022/05/07 06:36:50;;;;;;;8.52;1.40;;;;;;;;;;5085992;28;20455;-72
2022/05/07 06:39:20;;;;;;;11.93;1.27;;;;;;;;;;5087895;28;20411;-73
2022/05/07 06:41:51;;;;;;;3.05;1.02;;;;;;;;;;5086045;28;20048;-73
2022/05/07 06:44:21;;;;;;;3.33;1.30;;;;;;;;;;5086258;28;20055;-73
2022/05/07 06:46:51;;;;;;;3.58;1.30;;;;;;;;;;5087439;28;20052;-73
2022/05/07 06:49:22;;;;;;;9.07;1.70;;;;;;;;;;5087384;28;20051;-73
2022/05/07 06:51:55;;;;;;;5.97;1.10;;;;;;;;;;5085860;28;20052;-73
2022/05/07 06:54:26;;;;;;;7.15;1.13;;;;;;;;;;5088085;28;20048;-73
2022/05/07 06:56:56;;;;;;;6.32;1.55;;;;;;;;;;5087744;28;20048;-73
2022/05/07 06:59:26;;;;;;;8.45;2.00;;;;;;;;;;5087332;28;20427;-73
2022/05/07 07:01:57;;;;;;;8.98;1.85;;;;;;;;;;5087421;28;20051;-73
2022/05/07 07:04:29;;;;;;;8.63;1.63;;;;;;;;;;5086929;28;20052;-73
2022/05/07 07:06:58;;;;;;;8.60;2.30;;;;;;;;;;5087217;28;20039;-73
2022/05/07 07:09:28;;;;;;;7.72;2.03;;;;;;;;;;5087476;28;20055;-73
2022/05/07 07:11:58;;;;;;;5.40;1.60;;;;;;;;;;5084958;28;20056;-73
2022/05/07 07:14:28;;;;;;;6.57;1.85;;;;;;;;;;5086813;28;20048;-74
2022/05/07 07:16:58;;;;;;;3.78;1.38;;;;;;;;;;5086736;28;20510;-72
2022/05/07 07:19:28;;;;;;;6.38;1.88;;;;;;;;;;5087348;28;20047;-73
2022/05/07 07:21:58;;;;;;;5.60;1.73;;;;;;;;;;5086620;28;20040;-75
2022/05/07 07:24:28;;;;;;;7.05;1.83;;;;;;;;;;5086870;28;20048;-71
2022/05/07 07:26:58;;;;;;;3.50;1.70;;;;;;;;;;5086776;28;20044;-72
2022/05/07 07:29:28;;;;;;;9.18;2.42;;;;;;;;;;5085555;28;20063;-72
2022/05/07 07:31:58;;;;;;;5.20;1.50;;;;;;;;;;5086853;28;20048;-73
2022/05/07 07:34:28;;;;;;;31.47;2.77;;;;;;;;;;5086763;28;20040;-73
2022/05/07 07:36:59;;;;;;;176.75;5.75;;;;;;;;;;5086954;28;20438;-72
2022/05/07 07:39:29;;;;;;;189.75;6.43;;;;;;;;;;5086348;28;20044;-72
2022/05/07 07:41:59;;;;;;;180.55;6.57;;;;;;;;;;5086858;28;20051;-72
2022/05/07 07:44:29;;;;;;;266.77;7.75;;;;;;;;;;5087151;28;20490;-72
2022/05/07 07:49:47;;;;;;;306.88;8.77;;;;;;;;;;5087101;28;20044;-71
2022/05/07 07:52:18;;;;;;;335.10;9.98;;;;;;;;;;5086662;28;20125;-72
2022/05/07 07:54:48;;;;;;;527.10;11.80;;;;;;;;;;5086296;28;20408;-72
2022/05/07 07:57:18;;;;;;;495.30;13.25;;;;;;;;;;5085751;28;20063;-72
2022/05/07 07:59:53;;;;;;;111.50;5.63;;;;;;;;;;5086178;28;20518;-73
2022/05/07 08:02:24;;;;;;;301.50;10.37;;;;;;;;;;5086488;28;20052;-73
2022/05/07 08:04:55;;;;;;;237.75;8.73;;;;;;;;;;5086822;28;20053;-73
2022/05/07 08:13:04;;;;;;;293.48;8.40;;;;;;;;;;5085683;28;20402;-73
2022/05/07 08:15:35;;;;;;;209.73;5.75;;;;;;;;;;5086822;28;20080;-73
2022/05/07 08:18:07;;;;;;;198.25;5.57;;;;;;;;;;5085962;28;20052;-73
2022/05/07 08:20:38;;;;;;;134.93;5.90;;;;;;;;;;5086654;28;20040;-73
2022/05/07 08:23:09;;;;;;;139.95;5.18;;;;;;;;;;5086268;28;20274;-73
2022/05/07 08:25:39;;;;;;;129.52;6.82;;;;;;;;;;5088964;28;20048;-73
2022/05/07 08:28:09;;;;;;;87.25;4.03;;;;;;;;;;5090400;28;20048;-73
2022/05/07 08:30:45;;;;;;;151.40;7.28;;;;;;;;;;5090224;28;20052;-73
2022/05/07 08:33:19;;;;;;;101.82;4.15;;;;;;;;;;5090246;28;20748;-73
2022/05/07 08:35:50;;;;;;;44.03;3.03;;;;;;;;;;5090518;28;20048;-73
2022/05/07 08:38:23;;;;;;;24.17;3.38;;;;;;;;;;5088844;28;20074;-72
2022/05/07 08:40:54;;;;;;;96.60;3.63;;;;;;;;;;5089918;28;20040;-73
2022/05/07 08:43:23;;;;;;;58.60;3.72;;;;;;;;;;5089799;28;20054;-73
2022/05/07 08:45:53;;;;;;;48.42;2.95;;;;;;;;;;5090572;28;20052;-73
2022/05/07 08:48:23;;;;;;;69.63;3.20;;;;;;;;;;5089886;28;20063;-73
2022/05/07 08:50:53;;;;;;;29.50;2.45;;;;;;;;;;5089492;28;20040;-73
2022/05/07 08:53:24;;;;;;;39.58;2.83;;;;;;;;;;5089722;28;20063;-74
2022/05/07 08:55:54;;;;;;;24.08;3.40;;;;;;;;;;5089896;28;20051;-73
2022/05/07 08:58:26;;;;;;;41.95;2.67;;;;;;;;;;5088472;28;20063;-73
2022/05/07 09:00:57;;;;;;;103.97;3.90;;;;;;;;;;5089643;28;20052;-73
2022/05/07 09:03:41;;;;;;;136.40;5.38;;;;;;;;;;5088115;28;20511;-74
2022/05/07 09:06:19;;;;;;;167.35;4.70;;;;;;;;;;5089361;28;20403;-73
2022/05/07 09:08:49;;;;;;;148.30;5.18;;;;;;;;;;5089685;28;20106;-74
2022/05/07 09:11:20;;;;;;;193.85;4.85;;;;;;;;;;5088478;28;20052;-77
2022/05/07 09:14:06;;;;;;;197.37;5.37;;;;;;;;;;5089012;28;20043;-80
2022/05/07 09:16:46;;;;;;;95.68;3.00;;;;;;;;;;5089130;28;20052;-74
2022/05/07 09:19:27;;;;;;;145.50;3.55;;;;;;;;;;5087967;28;20040;-72
2022/05/07 09:22:11;;;;;;;132.30;3.22;;;;;;;;;;5088615;28;20662;-73
2022/05/07 09:24:51;;;;;;;124.70;3.63;;;;;;;;;;5088950;28;20040;-74
2022/05/07 09:27:24;;;;;;;13.15;1.90;;;;;;;;;;5088319;28;20059;-74
2022/05/07 09:30:03;;;;;;;87.93;4.00;;;;;;;;;;5088924;28;20102;-73
2022/05/07 09:32:37;;;;;;;42.03;2.35;;;;;;;;;;5088809;28;20055;-73
2022/05/07 09:38:05;;;;;;;138.10;4.80;;;;;;;;;;5088988;28;20800;-73
2022/05/07 09:40:44;;;;;;;;;;;;;;;;;;5089453;28;20522;-74
2022/05/07 09:43:15;;;;;;;81.50;3.45;;;;;;;;;;5088981;28;20398;-75
2022/05/07 09:45:45;;;;;;;;;;;;;;;;;;5088488;28;20051;-73
2022/05/07 09:48:17;;;;;;;88.68;4.03;;;;;;;;;;5088551;28;19931;-73
2022/05/07 09:50:49;;;;;;;173.00;4.55;;;;;;;;;;5088567;28;20510;-73
2022/05/07 09:58:56;;;;;;;56.70;2.25;;;;;;;;;;5088594;28;20055;-73
2022/05/07 10:01:44;;;;;;;11.95;1.80;;;;;;;;;;5087833;28;20044;-74
2022/05/07 10:04:18;;;;;;;20.48;2.13;;;;;;;;;;5088070;28;20495;-73
2022/05/07 10:07:09;;;;;;;13.48;1.75;;;;;;;;;;5088100;28;20053;-76
2022/05/07 10:09:58;;;;;;;2.53;1.92;;;;;;;;;;5088443;28;20055;-73
2022/05/07 10:12:30;;;;;;;82.88;2.97;;;;;;;;;;5087936;28;20075;-75
2022/05/07 10:15:12;;;;;;;;;;;;;;;;;;5088720;28;20048;-73
2022/05/07 10:17:44;;;;;;;590.50;14.47;;;;;;;;;;5088019;28;20629;-73
2022/05/07 10:20:23;;;;;;;73.28;3.85;;;;;;;;;;5087017;28;20059;-74
2022/05/07 10:22:56;;;;;;;257.38;9.98;;;;;;;;;;5087726;28;20040;-73
2022/05/07 10:25:27;;;;;;;155.50;6.40;;;;;;;;;;5085917;28;20056;-73
2022/05/07 10:28:08;;;;;;;101.78;25.40;;;;;;;;;;5087626;28;20071;-73
2022/05/07 10:30:50;;;;;;;251.82;5.80;;;;;;;;;;5086800;28;20043;-73
2022/05/07 10:33:21;;;;;;;;;;;;;;;;;;5089133;28;20051;-73
2022/05/07 10:35:55;;;;;;;326.23;9.55;;;;;;;;;;5086872;28;19924;-76
2022/05/07 10:38:26;;;;;;;270.48;6.72;;;;;;;;;;5084345;28;20047;-74
2022/05/07 10:41:06;;;;;;;232.57;6.45;;;;;;;;;;5087231;28;21112;-72
2022/05/07 10:44:05;;;;;;;157.13;4.78;;;;;;;;;;5086642;28;20055;-72
2022/05/07 10:46:45;;;;;;;214.02;5.50;;;;;;;;;;5079075;28;20052;-73
2022/05/07 10:49:18;;;;;;;81.15;3.40;;;;;;;;;;5086633;28;20044;-73
2022/05/07 10:51:52;;;;;;;256.83;6.75;;;;;;;;;;5085724;28;20533;-74
2022/05/07 10:54:26;;;;;;;340.27;8.63;;;;;;;;;;5086599;28;20422;-74
2022/05/07 10:56:59;;;;;;;336.08;8.20;;;;;;;;;;5087417;28;20044;-73
2022/05/07 10:59:29;;;;;;;399.55;11.55;;;;;;;;;;5087041;28;20499;-74
2022/05/07 11:02:08;;;;;;;304.65;8.80;;;;;;;;;;5086043;28;20557;-76
2022/05/07 11:04:45;;;;;;;92.97;3.92;;;;;;;;;;5086431;28;20055;-73
2022/05/07 11:07:22;;;;;;;145.10;5.68;;;;;;;;;;5087293;28;20040;-74
2022/05/07 11:09:53;;;;;;;297.75;7.78;;;;;;;;;;5087132;28;20047;-74
2022/05/07 11:12:26;;;;;;;129.75;4.75;;;;;;;;;;5086197;28;20048;-73
2022/05/07 11:14:56;;;;;;;193.70;4.03;;;;;;;;;;5086846;28;20052;-72
2022/05/07 11:17:35;;;;;;;123.13;3.47;;;;;;;;;;5086585;28;20044;-73
2022/05/07 11:20:12;;;;;;;130.27;3.10;;;;;;;;;;5085349;28;20060;-73
2022/05/07 11:22:42;;;;;;;20.98;1.40;;;;;;;;;;5087162;28;20040;-72
2022/05/07 11:25:14;;;;;;;93.97;2.15;;;;;;;;;;5085707;28;20059;-73
2022/05/07 11:27:47;;;;;;;34.03;8.03;;;;;;;;;;5086008;28;20052;-72
2022/05/07 11:30:17;;;;;;;48.75;3.30;;;;;;;;;;5084933;28;20286;-72
2022/05/07 11:32:48;;;;;;;153.13;3.88;;;;;;;;;;5086587;28;20569;-72
2022/05/07 11:35:23;;;;;;;55.55;3.22;;;;;;;;;;5086276;28;20043;-72
2022/05/07 11:37:53;;;;;;;103.28;5.15;;;;;;;;;;5086302;28;20040;-76
2022/05/07 11:40:31;;;;;;;11.45;2.10;;;;;;;;;;5086206;28;20052;-73
2022/05/07 11:45:49;;;;;;;26.00;1.88;;;;;;;;;;5086125;28;20658;-74
2022/05/07 11:48:25;;;;;;;21.48;2.38;;;;;;;;;;5085846;28;20052;-73
2022/05/07 11:50:59;;;;;;;11.18;1.45;;;;;;;;;;5086128;28;20040;-73
2022/05/07 11:53:31;;;;;;;28.50;1.30;;;;;;;;;;5086654;28;20040;-74
2022/05/07 11:56:09;;;;;;;35.15;2.10;;;;;;;;;;5085942;28;20044;-74
2022/05/07 11:58:42;;;;;;;10.20;1.70;;;;;;;;;;5084630;28;20774;-76
2022/05/07 12:01:18;;;;;;;2.88;0.90;;;;;;;;;;5086344;28;20055;-74
2022/05/07 12:03:50;;;;;;;6.40;0.80;;;;;;;;;;5086087;28;20052;-73
2022/05/07 12:06:25;;;;;;;4.93;1.88;;;;;;;;;;5085816;28;20048;-76
2022/05/07 12:08:56;;;;;;;6.43;0.98;;;;;;;;;;5085753;28;20509;-78
2022/05/07 12:11:26;;;;;;;3.67;0.65;;;;;;;;;;5085983;28;20044;-73
2022/05/07 12:13:56;;;;;;;4.05;1.40;;;;;;;;;;5086222;28;20048;-73
2022/05/07 12:19:15;;;;;;;3.25;1.20;;;;;;;;;;5085519;28;20056;-74
2022/05/07 12:30:12;;;;;;;2.08;1.33;;;;;;;;;;5085453;28;20044;-73
2022/05/07 12:32:45;;;;;;;2.58;1.42;;;;;;;;;;5085715;28;20051;-72
2022/05/07 12:35:16;;;;;;;5.40;1.65;;;;;;;;;;5085872;28;20047;-75
2022/05/07 12:37:47;;;;;;;11.75;1.83;;;;;;;;;;5085569;28;20407;-73
2022/05/07 12:40:18;;;;;;;6.55;1.50;;;;;;;;;;5086438;28;20043;-73
2022/05/07 12:42:48;;;;;;;3.83;1.70;;;;;;;;;;5086161;28;20063;-73
2022/05/07 12:45:19;;;;;;;15.20;1.40;;;;;;;;;;5084292;28;20370;-72
2022/05/07 12:47:49;;;;;;;1.20;1.10;;;;;;;;;;5085810;28;20426;-73
2022/05/07 12:50:19;;;;;;;8.93;1.38;;;;;;;;;;5085203;28;20047;-74
2022/05/07 12:52:49;;;;;;;3.63;1.70;;;;;;;;;;5085738;28;20048;-73
2022/05/07 12:55:19;;;;;;;1.17;0.70;;;;;;;;;;5085588;28;20529;-73
2022/05/07 12:57:49;;;;;;;2.47;0.70;;;;;;;;;;5085826;28;20402;-76
2022/05/07 13:00:20;;;;;;;9.77;1.10;;;;;;;;;;5085733;28;20060;-73
2022/05/07 13:02:53;;;;;;;2.40;0.85;;;;;;;;;;5085459;28;20043;-73
2022/05/07 13:05:23;;;;;;;1.40;0.68;;;;;;;;;;5085690;28;20051;-73
2022/05/07 13:08:16;;;;;;;4.87;0.77;;;;;;;;;;5086511;28;20052;-72
2022/05/07 13:10:48;;;;;;;5.45;1.00;;;;;;;;;;5086839;28;20047;-73
2022/05/07 13:13:18;;;;;;;;;;;;;;;;;;5090057;28;20047;-73
2022/05/07 13:15:49;;;;;;;4.45;0.98;;;;;;;;;;5089323;28;19931;-73
2022/05/07 13:18:20;;;;;;;5.00;0.98;;;;;;;;;;5089166;28;20411;-74
2022/05/07 13:20:57;;;;;;;0.77;0.65;;;;;;;;;;5088508;28;20059;-74
2022/05/07 13:23:27;;;;;;;3.97;0.80;;;;;;;;;;5089327;28;20043;-73
2022/05/07 13:25:57;;;;;;;3.05;0.93;;;;;;;;;;5089400;28;20055;-75
2022/05/07 13:28:27;;;;;;;12.52;1.63;;;;;;;;;;5088734;28;20059;-73
2022/05/07 13:31:01;;;;;;;7.93;1.10;;;;;;;;;;5089836;28;20403;-74
2022/05/07 13:33:31;;;;;;;1.60;0.75;;;;;;;;;;5089177;28;20048;-74
2022/05/07 13:36:02;;;;;;;5.47;1.00;;;;;;;;;;5089577;28;20055;-75
2022/05/07 13:38:32;;;;;;;3.78;0.98;;;;;;;;;;5089187;28;20078;-73
2022/05/07 13:41:03;;;;;;;2.53;0.77;;;;;;;;;;5088525;28;20418;-76
2022/05/07 13:43:35;;;;;;;5.47;0.90;;;;;;;;;;5088916;28;20048;-73
2022/05/07 13:46:05;;;;;;;3.05;1.00;;;;;;;;;;5089115;28;20095;-75
2022/05/07 13:48:35;;;;;;;4.03;1.75;;;;;;;;;;5088959;28;20754;-73
2022/05/07 13:51:09;;;;;;;6.93;1.55;;;;;;;;;;5088879;28;20051;-73
2022/05/07 13:53:39;;;;;;;3.20;1.13;;;;;;;;;;5088635;28;20043;-75
2022/05/07 13:56:08;;;;;;;13.40;1.70;;;;;;;;;;5088822;28;20055;-73
2022/05/07 13:58:41;;;;;;;1.85;0.77;;;;;;;;;;5088653;28;20411;-73
2022/05/07 14:01:12;;;;;;;14.05;2.63;;;;;;;;;;5088188;28;20047;-75
2022/05/07 14:03:42;;;;;;;5.72;0.85;;;;;;;;;;5088993;28;20040;-72
2022/05/07 14:06:16;;;;;;;4.93;0.95;;;;;;;;;;5088809;28;20602;-73
2022/05/07 14:08:48;;;;;;;2.67;1.00;;;;;;;;;;5088169;28;20056;-73
2022/05/07 14:11:19;;;;;;;3.42;1.15;;;;;;;;;;5087989;28;20043;-75
2022/05/07 14:13:49;;;;;;;3.80;0.90;;;;;;;;;;5087494;28;20502;-73
2022/05/07 14:16:19;;;;;;;4.50;0.90;;;;;;;;;;5088521;28;20517;-73
2022/05/07 14:18:49;;;;;;;2.00;0.80;;;;;;;;;;5088211;28;20040;-74
2022/05/07 14:21:18;;;;;;;1.13;0.80;;;;;;;;;;5088202;28;20055;-73
2022/05/07 14:23:49;;;;;;;2.72;1.05;;;;;;;;;;5087467;28;20054;-74
2022/05/07 14:26:19;;;;;;;1.77;1.10;;;;;;;;;;5087768;28;20059;-73
2022/05/07 14:28:50;;;;;;;2.47;1.00;;;;;;;;;;5088116;28;20052;-73
2022/05/07 14:31:19;;;;;;;2.20;0.82;;;;;;;;;;5088772;28;20055;-76
2022/05/07 14:33:51;;;;;;;4.57;0.90;;;;;;;;;;5087993;28;20051;-74
2022/05/07 14:36:41;;;;;;;2.97;1.02;;;;;;;;;;5087333;28;20040;-73
2022/05/07 14:39:13;;;;;;;6.45;1.25;;;;;;;;;;5087805;28;20052;-74
2022/05/07 14:41:44;;;;;;;3.17;1.00;;;;;;;;;;5087232;28;20051;-72
2022/05/07 14:44:14;;;;;;;5.95;1.15;;;;;;;;;;5087720;28;20056;-74
2022/05/07 14:46:44;;;;;;;1.83;0.93;;;;;;;;;;5087804;28;20402;-74
2022/05/07 14:49:21;;;;;;;1.70;0.95;;;;;;;;;;5087844;28;20044;-75
2022/05/07 14:51:51;;;;;;;6.88;0.75;;;;;;;;;;5087327;28;20051;-76
2022/05/07 14:54:42;;;;;;;7.22;1.30;;;;;;;;;;5087605;28;20040;-74
2022/05/07 14:57:13;;;;;;;1.60;1.00;;;;;;;;;;5088215;28;20764;-76
2022/05/07 14:59:43;;;;;;;2.45;0.93;;;;;;;;;;5086666;28;20509;-76
2022/05/07 15:02:15;;;;;;;1.67;1.08;;;;;;;;;;5087411;28;20428;-74
2022/05/07 15:04:45;;;;;;;1.30;0.80;;;;;;;;;;5087280;28;20093;-76
2022/05/07 15:07:16;;;;;;;10.70;2.08;;;;;;;;;;5088110;28;20151;-74
2022/05/07 15:12:34;;;;;;;1.77;0.93;;;;;;;;;;5087846;28;20047;-73
2022/05/07 15:15:05;;;;;;;24.98;2.97;;;;;;;;;;5087266;28;20048;-75
2022/05/07 15:17:35;;;;;;;0.98;0.70;;;;;;;;;;5085424;28;20044;-75
2022/05/07 15:20:05;;;;;;;;;;;;;;;;;;5087804;28;20052;-78
2022/05/07 15:22:37;;;;;;;1.45;0.85;;;;;;;;;;5086770;28;19920;-75
2022/05/07 15:25:07;;;;;;;1.98;1.20;;;;;;;;;;5087618;28;20496;-72
2022/05/07 15:27:38;;;;;;;5.45;1.13;;;;;;;;;;5086507;28;20063;-75
2022/05/07 15:30:08;;;;;;;4.03;1.30;;;;;;;;;;5087037;28;20040;-78
2022/05/07 15:51:18;;;;;;;3.70;1.00;;;;;;;;;;5103447;27;20976;-76
2022/05/07 15:53:48;;;;;;;8.98;1.42;;;;;;;;;;5104072;28;20048;-76
2022/05/07 15:56:20;;;;;;;4.45;1.08;;;;;;;;;;5104437;28;20052;-75
2022/05/07 15:58:51;;;;;;;4.25;2.13;;;;;;;;;;5104138;28;20048;-76
2022/05/07 16:01:21;;;;;;;3.40;1.00;;;;;;;;;;5103908;28;20048;-75
2022/05/07 16:03:51;;;;;;;;;;;;;;;;;;5104773;28;20398;-76
2022/05/07 16:06:21;;;;;;;1.83;1.00;;;;;;;;;;5103719;28;19931;-76
2022/05/07 16:08:51;;;;;;;2.83;1.70;;;;;;;;;;5103535;28;20048;-76
2022/05/07 16:11:21;;;;;;;4.88;1.38;;;;;;;;;;5103726;28;20058;-75
2022/05/07 16:13:52;;;;;;;8.20;1.63;;;;;;;;;;5103714;28;20052;-76